createdAt,value
2017-10-08T00:00:39.278Z,93.61
2017-10-08T00:03:13.617Z,93.84
2017-10-08T00:05:46.005Z,93.96
2017-10-08T00:08:19.238Z,93.67
2017-10-08T00:10:53.277Z,93.81
2017-10-08T00:13:24.499Z,94.08
2017-10-08T00:16:00.632Z,93.84
2017-10-08T00:18:33.288Z,93.99
2017-10-08T00:21:05.900Z,93.97
2017-10-08T00:23:37.606Z,94.08
2017-10-08T00:26:16.877Z,94.21
2017-10-08T00:28:48.685Z,94.23
2017-10-08T00:31:23.166Z,94.81
2017-10-08T00:33:55.001Z,94.03
2017-10-08T00:36:26.079Z,94.94
2017-10-08T00:38:57.532Z,94.71
2017-10-08T00:41:28.791Z,95.08
2017-10-08T00:43:59.632Z,94.82
2017-10-08T00:46:31.478Z,94.63
2017-10-08T00:49:03.761Z,94.77
2017-10-08T00:51:35.394Z,95.36
2017-10-08T00:54:06.796Z,94.90
2017-10-08T00:56:38.524Z,95.19
2017-10-08T00:59:11.321Z,95.39
2017-10-08T01:01:56.308Z,95.22
2017-10-08T01:04:28.454Z,95.12
2017-10-08T01:07:00.239Z,95.07
2017-10-08T01:09:31.677Z,95.37
2017-10-08T01:12:03.365Z,95.10
2017-10-08T01:14:34.806Z,95.16
2017-10-08T01:17:05.352Z,95.02
2017-10-08T01:19:36.421Z,95.53
2017-10-08T01:22:10.535Z,95.07
2017-10-08T01:24:42.899Z,95.20
2017-10-08T01:27:16.130Z,95.03
2017-10-08T01:29:50.795Z,94.92
2017-10-08T01:32:24.626Z,95.14
2017-10-08T01:34:56.265Z,95.24
2017-10-08T01:37:27.692Z,94.71
2017-10-08T01:39:59.448Z,95.36
2017-10-08T01:42:32.052Z,94.65
2017-10-08T01:45:03.713Z,95.24
2017-10-08T01:47:35.918Z,94.85
2017-10-08T01:50:12.622Z,94.78
2017-10-08T01:52:44.222Z,95.41
2017-10-08T01:55:15.911Z,95.00
2017-10-08T01:57:47.522Z,95.10
2017-10-08T02:00:21.531Z,94.80
2017-10-08T02:02:54.582Z,95.21
2017-10-08T02:05:27.295Z,95.10
2017-10-08T02:07:57.873Z,94.89
2017-10-08T02:10:29.072Z,94.76
2017-10-08T02:12:59.958Z,94.38
2017-10-08T02:15:40.904Z,94.32
2017-10-08T02:18:28.577Z,94.36
2017-10-08T02:21:09.437Z,94.06
2017-10-08T02:23:56.987Z,93.88
2017-10-08T02:26:39.749Z,93.90
2017-10-08T02:29:42.295Z,94.55
2017-10-08T02:32:30.120Z,94.34
2017-10-08T02:35:28.595Z,94.45
2017-10-08T02:38:00.589Z,94.89
2017-10-08T02:40:31.725Z,94.44
2017-10-08T02:43:04.229Z,94.40
2017-10-08T02:45:35.031Z,94.33
2017-10-08T02:48:06.792Z,94.33
2017-10-08T02:50:38.178Z,94.01
2017-10-08T02:53:09.236Z,94.13
2017-10-08T02:55:40.526Z,93.96
2017-10-08T02:58:11.838Z,94.25
2017-10-08T03:00:42.893Z,93.90
2017-10-08T03:03:14.442Z,94.00
2017-10-08T03:05:45.888Z,94.27
2017-10-08T03:08:23.040Z,94.22
2017-10-08T03:11:03.074Z,94.29
2017-10-08T03:13:33.524Z,94.12
2017-10-08T03:16:07.902Z,94.37
2017-10-08T03:18:39.681Z,94.63
2017-10-08T03:21:11.420Z,94.67
2017-10-08T03:23:43.013Z,95.34
2017-10-08T03:26:14.603Z,94.90
2017-10-08T03:28:45.790Z,94.60
2017-10-08T03:31:16.859Z,94.58
2017-10-08T03:33:48.094Z,94.51
2017-10-08T03:36:21.249Z,94.52
2017-10-08T03:38:52.333Z,94.56
2017-10-08T03:41:24.544Z,94.66
2017-10-08T03:43:56.277Z,94.88
2017-10-08T03:46:27.582Z,94.45
2017-10-08T03:48:58.697Z,94.48
2017-10-08T03:51:30.116Z,94.83
2017-10-08T03:54:01.111Z,94.96
2017-10-08T03:56:31.987Z,94.81
2017-10-08T03:59:03.493Z,95.08
2017-10-08T04:01:34.656Z,95.00
2017-10-08T04:04:06.442Z,95.26
2017-10-08T04:06:38.161Z,95.45
2017-10-08T04:09:09.151Z,95.63
2017-10-08T04:11:40.276Z,95.93
2017-10-08T04:14:12.032Z,95.67
2017-10-08T04:16:43.480Z,96.38
2017-10-08T04:19:14.529Z,96.36
2017-10-08T04:21:45.729Z,96.49
2017-10-08T04:24:19.829Z,96.13
2017-10-08T04:26:51.310Z,96.16
2017-10-08T04:29:25.010Z,96.17
2017-10-08T04:31:56.709Z,96.29
2017-10-08T04:34:29.185Z,96.22
2017-10-08T04:37:01.448Z,95.81
2017-10-08T04:39:34.698Z,95.63
2017-10-08T04:42:08.232Z,95.55
2017-10-08T04:44:40.195Z,95.47
2017-10-08T04:47:18.980Z,95.40
2017-10-08T04:49:59.277Z,95.44
2017-10-08T04:52:35.110Z,95.50
2017-10-08T04:55:07.257Z,95.46
2017-10-08T04:57:40.969Z,95.64
2017-10-08T05:00:13.122Z,95.74
2017-10-08T05:02:46.213Z,96.00
2017-10-08T05:05:21.312Z,95.63
2017-10-08T05:07:54.395Z,95.55
2017-10-08T05:10:28.025Z,95.70
2017-10-08T05:13:02.278Z,95.50
2017-10-08T05:15:34.916Z,95.25
2017-10-08T05:18:07.271Z,94.89
2017-10-08T05:20:41.170Z,95.19
2017-10-08T05:23:13.442Z,95.09
2017-10-08T05:25:45.150Z,94.81
2017-10-08T05:28:18.723Z,94.61
2017-10-08T05:30:49.369Z,94.52
2017-10-08T05:33:23.386Z,94.50
2017-10-08T05:35:54.388Z,94.20
2017-10-08T05:38:25.468Z,94.16
2017-10-08T05:40:58.271Z,93.97
2017-10-08T05:43:31.044Z,93.66
2017-10-08T05:46:02.057Z,94.01
2017-10-08T05:48:33.629Z,93.89
2017-10-08T05:51:04.642Z,93.81
2017-10-08T05:53:37.846Z,93.35
2017-10-08T05:56:08.557Z,93.37
2017-10-08T05:58:42.580Z,93.26
2017-10-08T06:01:13.722Z,93.25
2017-10-08T06:03:44.938Z,93.23
2017-10-08T06:06:16.993Z,93.05
2017-10-08T06:08:50.380Z,92.89
2017-10-08T06:11:23.400Z,92.75
2017-10-08T06:13:55.083Z,92.62
2017-10-08T06:16:31.141Z,92.37
2017-10-08T06:19:06.006Z,92.15
2017-10-08T06:21:41.748Z,92.07
2017-10-08T06:24:15.818Z,91.72
2017-10-08T06:26:47.304Z,91.84
2017-10-08T06:29:19.861Z,91.69
2017-10-08T06:32:01.606Z,91.62
2017-10-08T06:34:33.154Z,91.50
2017-10-08T06:37:08.008Z,91.82
2017-10-08T06:39:40.840Z,92.03
2017-10-08T06:42:12.545Z,91.78
2017-10-08T06:44:43.147Z,91.46
2017-10-08T06:47:16.759Z,91.55
2017-10-08T06:49:49.217Z,91.35
2017-10-08T06:52:24.791Z,91.52
2017-10-08T06:55:02.516Z,91.37
2017-10-08T06:57:38.015Z,91.10
2017-10-08T07:00:17.589Z,90.79
2017-10-08T07:02:54.401Z,90.60
2017-10-08T07:05:29.896Z,90.69
2017-10-08T07:08:06.245Z,90.96
2017-10-08T07:10:39.833Z,90.50
2017-10-08T07:13:14.342Z,90.27
2017-10-08T07:15:49.929Z,90.57
2017-10-08T07:18:24.553Z,90.13
2017-10-08T07:20:55.849Z,90.37
2017-10-08T07:23:30.107Z,90.19
2017-10-08T07:26:04.041Z,90.33
2017-10-08T07:28:37.467Z,90.25
2017-10-08T07:31:20.278Z,90.13
2017-10-08T07:34:12.608Z,90.10
2017-10-08T07:39:41.102Z,90.09
2017-10-08T07:42:27.888Z,90.66
2017-10-08T07:45:05.580Z,90.40
2017-10-08T07:53:20.763Z,89.54
2017-10-08T07:56:17.253Z,88.64
2017-10-08T07:59:08.154Z,89.11
2017-10-08T08:01:42.062Z,88.58
2017-10-08T08:07:12.557Z,88.82
2017-10-08T08:10:55.510Z,88.55
2017-10-08T08:13:41.997Z,88.28
2017-10-08T08:19:11.638Z,87.63
2017-10-08T08:27:21.234Z,88.04
2017-10-08T08:30:23.781Z,87.06
2017-10-08T08:33:13.269Z,87.14
2017-10-08T08:39:25.348Z,86.19
2017-10-08T08:42:02.038Z,84.86
2017-10-08T08:44:54.029Z,85.39
2017-10-08T08:47:38.318Z,85.50
2017-10-08T08:50:16.962Z,83.99
2017-10-08T08:52:57.965Z,84.27
2017-10-08T08:55:35.908Z,84.88
2017-10-08T08:58:12.921Z,83.98
2017-10-08T09:00:49.869Z,83.02
2017-10-08T09:03:27.589Z,83.30
2017-10-08T09:06:10.161Z,83.88
2017-10-08T09:08:44.012Z,83.80
2017-10-08T09:11:23.191Z,83.15
2017-10-08T09:14:09.941Z,83.33
2017-10-08T09:16:53.963Z,83.06
2017-10-08T09:22:33.547Z,83.41
2017-10-08T09:25:19.776Z,83.26
2017-10-08T09:28:00.665Z,82.57
2017-10-08T09:30:37.968Z,83.80
2017-10-08T09:33:15.507Z,83.61
2017-10-08T09:36:00.983Z,83.07
2017-10-08T09:38:39.944Z,83.05
2017-10-08T09:41:20.536Z,83.46
2017-10-08T09:43:56.644Z,81.40
2017-10-08T09:46:39.592Z,84.11
2017-10-08T09:49:20.221Z,82.20
2017-10-08T09:51:57.552Z,81.75
2017-10-08T09:54:39.809Z,81.67
2017-10-08T09:57:16.519Z,83.64
2017-10-08T10:00:00.923Z,81.38
2017-10-08T10:02:45.013Z,80.77
2017-10-08T10:05:26.837Z,79.84
2017-10-08T10:08:11.898Z,79.64
2017-10-08T10:10:51.709Z,81.10
2017-10-08T10:13:26.883Z,80.37
2017-10-08T10:16:05.826Z,79.34
2017-10-08T10:18:51.933Z,80.36
2017-10-08T10:21:31.155Z,80.21
2017-10-08T10:24:21.582Z,80.57
2017-10-08T10:27:03.808Z,81.35
2017-10-08T10:29:49.927Z,78.98
2017-10-08T10:32:32.068Z,78.80
2017-10-08T10:35:41.458Z,81.14
2017-10-08T10:38:18.482Z,78.77
2017-10-08T10:40:52.344Z,78.28
2017-10-08T10:43:30.377Z,78.91
2017-10-08T10:46:08.317Z,79.42
2017-10-08T10:48:57.654Z,79.75
2017-10-08T10:51:39.302Z,80.00
2017-10-08T10:59:49.327Z,80.65
2017-10-08T11:02:27.283Z,79.31
2017-10-08T11:07:52.907Z,79.16
2017-10-08T11:10:33.562Z,79.58
2017-10-08T11:13:20.681Z,80.69
2017-10-08T11:15:55.005Z,80.59
2017-10-08T11:21:27.393Z,86.38
2017-10-08T11:24:14.082Z,92.63
2017-10-08T11:26:52.200Z,93.65
2017-10-08T11:29:26.883Z,95.43
2017-10-08T11:32:00.040Z,97.40
2017-10-08T11:37:15.648Z,97.26
2017-10-08T11:39:54.256Z,98.21
2017-10-08T11:42:26.851Z,97.36
2017-10-08T11:45:10.566Z,95.69
2017-10-08T11:47:47.925Z,96.70
2017-10-08T11:50:26.743Z,96.14
2017-10-08T11:53:08.955Z,96.62
2017-10-08T11:55:53.490Z,92.40
2017-10-08T11:58:37.127Z,92.71
2017-10-08T12:01:21.326Z,94.50
2017-10-08T12:04:05.569Z,94.28
2017-10-08T12:06:55.699Z,94.62
2017-10-08T12:09:36.790Z,93.56
2017-10-08T12:12:17.289Z,91.91
2017-10-08T12:17:49.532Z,88.24
2017-10-08T12:23:40.200Z,88.44
2017-10-08T12:26:30.336Z,87.22
2017-10-08T12:35:48.245Z,86.38
2017-10-08T12:41:44.227Z,87.68
2017-10-08T12:44:31.781Z,88.38
2017-10-08T12:47:11.489Z,88.27
2017-10-08T12:49:59.491Z,89.05
2017-10-08T12:52:38.643Z,88.26
2017-10-08T12:55:18.829Z,88.06
2017-10-08T13:01:05.949Z,88.00
2017-10-08T13:03:45.554Z,85.74
2017-10-08T13:06:32.292Z,86.51
2017-10-08T13:09:25.626Z,85.93
2017-10-08T13:15:04.024Z,86.52
2017-10-08T13:17:50.445Z,87.88
2017-10-08T13:20:30.279Z,87.84
2017-10-08T13:23:39.095Z,87.62
2017-10-08T13:26:19.188Z,88.08
2017-10-08T13:29:02.589Z,86.87
2017-10-08T13:31:50.484Z,88.89
2017-10-08T13:37:38.424Z,86.43
2017-10-08T13:40:19.785Z,86.74
2017-10-08T13:45:48.976Z,84.33
2017-10-08T13:48:28.451Z,86.94
2017-10-08T13:51:12.414Z,85.82
2017-10-08T13:53:54.921Z,85.31
2017-10-08T13:56:43.723Z,79.94
2017-10-08T13:59:33.817Z,79.46
2017-10-08T14:02:11.838Z,80.90
2017-10-08T14:04:52.689Z,80.58
2017-10-08T14:07:29.953Z,80.35
2017-10-08T14:10:34.295Z,78.38
2017-10-08T14:29:06.007Z,77.24
2017-10-08T14:31:45.826Z,79.24
2017-10-08T14:34:21.430Z,78.54
2017-10-08T14:37:06.308Z,78.28
2017-10-08T14:39:45.216Z,76.46
2017-10-08T14:42:29.495Z,77.27
2017-10-08T14:48:25.638Z,76.12
2017-10-08T14:57:07.624Z,77.54
2017-10-08T15:00:04.052Z,77.86
2017-10-08T15:08:46.265Z,78.71
2017-10-08T15:11:28.178Z,76.84
2017-10-08T15:14:12.087Z,77.44
2017-10-08T15:19:52.415Z,78.72
2017-10-08T15:22:35.672Z,79.99
2017-10-08T15:25:33.065Z,79.45
2017-10-08T15:28:20.140Z,77.99
2017-10-08T15:34:09.646Z,79.53
2017-10-08T15:36:55.745Z,79.94
2017-10-08T15:39:37.760Z,79.53
2017-10-08T15:42:29.489Z,79.97
2017-10-08T15:54:10.082Z,80.30
2017-10-08T15:56:54.296Z,80.34
2017-10-08T15:59:41.229Z,81.80
2017-10-08T16:02:23.958Z,81.45
2017-10-08T16:05:06.940Z,79.91
2017-10-08T16:07:51.585Z,78.96
2017-10-08T16:10:51.309Z,79.81
2017-10-08T16:14:00.018Z,80.60
2017-10-08T16:19:38.131Z,81.26
2017-10-08T16:22:27.001Z,81.43
2017-10-08T16:25:17.340Z,81.41
2017-10-08T16:34:09.060Z,82.58
2017-10-08T16:36:43.942Z,82.39
2017-10-08T16:39:20.806Z,82.32
2017-10-08T16:48:32.946Z,82.89
2017-10-08T16:51:12.294Z,82.90
2017-10-08T16:54:00.841Z,83.41
2017-10-08T16:56:39.893Z,83.66
2017-10-08T16:59:23.599Z,84.14
2017-10-08T17:02:01.851Z,84.52
2017-10-08T17:04:51.609Z,84.64
2017-10-08T17:07:34.123Z,84.65
2017-10-08T17:10:13.646Z,85.40
2017-10-08T17:12:56.995Z,85.51
2017-10-08T17:15:41.162Z,85.61
2017-10-08T17:18:24.536Z,85.36
2017-10-08T17:21:07.904Z,86.50
2017-10-08T17:23:43.850Z,86.54
2017-10-08T17:26:25.618Z,87.15
2017-10-08T17:29:03.927Z,86.25
2017-10-08T17:31:44.116Z,86.69
2017-10-08T17:34:25.080Z,87.49
2017-10-08T17:37:40.213Z,87.02
2017-10-08T17:41:04.030Z,87.48
2017-10-08T17:43:42.822Z,87.59
2017-10-08T17:46:26.550Z,87.44
2017-10-08T17:49:00.404Z,87.17
2017-10-08T17:51:38.416Z,87.46
2017-10-08T17:54:19.485Z,87.20
2017-10-08T17:56:59.001Z,87.51
2017-10-08T17:59:52.281Z,87.44
2017-10-08T18:02:35.246Z,87.00
2017-10-08T18:05:15.169Z,86.70
2017-10-08T18:08:02.720Z,86.48
2017-10-08T18:10:44.751Z,86.84
2017-10-08T18:13:25.476Z,86.83
2017-10-08T18:16:03.260Z,86.89
2017-10-08T18:18:38.105Z,86.62
2017-10-08T18:21:20.121Z,86.90
2017-10-08T18:24:09.788Z,86.82
2017-10-08T18:26:49.275Z,86.79
2017-10-08T18:29:28.598Z,87.15
2017-10-08T18:32:05.029Z,87.80
2017-10-08T18:34:51.902Z,87.38
2017-10-08T18:37:34.223Z,88.38
2017-10-08T18:40:17.623Z,87.67
2017-10-08T18:42:58.783Z,88.26
2017-10-08T18:45:38.607Z,88.26
2017-10-08T18:48:21.633Z,88.44
2017-10-08T18:51:00.079Z,88.66
2017-10-08T18:53:45.999Z,88.56
2017-10-08T18:56:23.435Z,89.41
2017-10-08T18:59:16.201Z,89.94
2017-10-08T19:02:03.232Z,89.64
2017-10-08T19:04:48.760Z,89.79
2017-10-08T19:07:36.793Z,90.26
2017-10-08T19:10:12.638Z,90.06
2017-10-08T19:12:55.344Z,89.80
2017-10-08T19:15:33.161Z,89.72
2017-10-08T19:18:16.088Z,89.70
2017-10-08T19:20:54.538Z,89.80
2017-10-08T19:23:36.066Z,89.97
2017-10-08T19:26:13.336Z,89.86
2017-10-08T19:28:47.640Z,90.04
2017-10-08T19:31:22.622Z,89.78
2017-10-08T19:36:50.284Z,89.07
2017-10-08T19:39:33.346Z,89.77
2017-10-08T19:42:08.516Z,89.53
2017-10-08T19:44:50.750Z,89.64
2017-10-08T19:47:29.074Z,89.27
2017-10-08T19:50:14.614Z,89.71
2017-10-08T19:52:51.360Z,89.99
2017-10-08T19:55:32.221Z,89.62
2017-10-08T19:58:14.301Z,89.46
2017-10-08T20:00:53.569Z,89.36
2017-10-08T20:03:31.402Z,88.99
2017-10-08T20:06:07.286Z,88.94
2017-10-08T20:08:54.207Z,88.51
2017-10-08T20:14:22.379Z,87.72
2017-10-08T20:16:58.665Z,87.49
2017-10-08T20:19:41.879Z,87.15
2017-10-08T20:22:17.957Z,87.62
2017-10-08T20:24:55.963Z,87.39
2017-10-08T20:27:30.959Z,87.43
2017-10-08T20:33:00.635Z,87.51
2017-10-08T20:35:41.044Z,87.74
2017-10-08T20:38:19.396Z,87.82
2017-10-08T20:40:55.806Z,88.34
2017-10-08T20:43:42.075Z,88.17
2017-10-08T20:49:19.988Z,88.20
2017-10-08T20:52:00.477Z,87.88
2017-10-08T20:54:43.756Z,87.51
2017-10-08T20:57:21.370Z,88.07
2017-10-08T21:00:05.788Z,87.97
2017-10-08T21:02:49.036Z,87.84
2017-10-08T21:05:40.932Z,88.05
2017-10-08T21:08:16.984Z,87.50
2017-10-08T21:10:50.635Z,87.75
2017-10-08T21:13:24.622Z,87.06
2017-10-08T21:16:06.819Z,87.21
2017-10-08T21:18:41.489Z,87.26
2017-10-08T21:21:19.410Z,87.29
2017-10-08T21:23:57.207Z,87.13
2017-10-08T21:26:35.139Z,87.23
2017-10-08T21:29:09.105Z,87.83
2017-10-08T21:31:49.962Z,87.59
2017-10-08T21:34:26.399Z,87.92
2017-10-08T21:36:59.659Z,88.00
2017-10-08T21:39:36.692Z,87.92
2017-10-08T21:42:16.965Z,87.77
2017-10-08T21:44:58.522Z,87.91
2017-10-08T21:47:32.536Z,88.07
2017-10-08T21:50:17.541Z,88.01
2017-10-08T21:52:57.431Z,88.15
2017-10-08T21:55:32.370Z,87.94
2017-10-08T21:58:18.859Z,88.09
2017-10-08T22:01:33.322Z,87.99
2017-10-08T22:04:16.292Z,87.95
2017-10-08T22:06:55.138Z,87.68
2017-10-08T22:09:34.292Z,87.96
2017-10-08T22:12:17.356Z,88.11
2017-10-08T22:17:42.484Z,88.70
2017-10-08T22:20:21.526Z,88.59
2017-10-08T22:22:54.630Z,87.97
2017-10-08T22:25:32.119Z,87.86
2017-10-08T22:28:08.126Z,87.71
2017-10-08T22:30:43.414Z,87.73
2017-10-08T22:33:25.699Z,87.37
2017-10-08T22:36:02.314Z,88.23
2017-10-08T22:38:42.431Z,88.07
2017-10-08T22:41:21.039Z,87.50
2017-10-08T22:43:56.144Z,87.65
2017-10-08T22:46:29.014Z,87.59
2017-10-08T22:49:04.794Z,89.04
2017-10-08T22:51:47.641Z,89.53
2017-10-08T22:54:25.281Z,89.14
2017-10-08T22:56:57.846Z,88.41
2017-10-08T22:59:30.425Z,88.96
2017-10-08T23:02:02.595Z,89.31
2017-10-08T23:13:42.428Z,88.66
2017-10-08T23:16:18.144Z,88.53
2017-10-08T23:18:51.439Z,89.35
2017-10-08T23:21:22.503Z,89.51
2017-10-08T23:23:53.407Z,89.49
2017-10-08T23:26:23.621Z,89.20
2017-10-08T23:28:55.279Z,89.03
2017-10-08T23:31:26.179Z,89.51
2017-10-08T23:33:57.148Z,89.65
2017-10-08T23:36:28.615Z,89.96
2017-10-08T23:38:59.060Z,90.07
2017-10-08T23:41:29.526Z,90.74
2017-10-08T23:44:00.305Z,90.78
2017-10-08T23:46:34.940Z,91.00
2017-10-08T23:49:05.456Z,90.85
2017-10-08T23:51:42.853Z,91.77
2017-10-08T23:54:24.737Z,91.21
2017-10-08T23:57:00.185Z,91.03
2017-10-08T23:59:30.723Z,92.07
